Time;durP1;ratioP1;P1;durP2;ratioP2;P2;SDS_P1;SDS_P2;PMS_P1;PMS_P2;Temp;Humidity;BMP_temperature;BMP_pressure;BME280_temperature;BME280_humidity;BME280_pressure;Samples;Min_cycle;Max_cycle;Signal;HPM_P1;HPM_P2
2021/12/12 00:01:08;;;;;;;13.10;4.47;;;;;;;7.41;67.75;102041.53;5064908;28;20083;-59
2021/12/12 00:03:40;;;;;;;9.57;4.20;;;;;;;7.42;67.17;102034.34;5063379;28;20105;-59
2021/12/12 00:06:14;;;;;;;10.38;4.45;;;;;;;7.42;67.14;102024.47;5062745;28;20044;-58
2021/12/12 00:08:45;;;;;;;10.05;4.45;;;;;;;7.43;67.03;102026.13;5066022;28;20037;-58
2021/12/12 00:11:15;;;;;;;10.00;4.03;;;;;;;7.43;67.16;102025.31;5061967;28;20051;-59
2021/12/12 00:13:46;;;;;;;9.65;3.92;;;;;;;7.42;67.38;102031.66;5063046;28;20084;-58
2021/12/12 00:16:14;;;;;;;10.95;4.20;;;;;;;7.41;67.55;102035.34;5066199;28;20554;-57
2021/12/12 00:18:42;;;;;;;10.35;4.40;;;;;;;7.31;67.50;102011.47;5065765;28;20083;-58
2021/12/12 00:21:14;;;;;;;13.65;3.95;;;;;;;7.42;67.09;102019.13;5067162;28;20073;-59
2021/12/12 00:23:42;;;;;;;8.98;3.85;;;;;;;7.42;67.07;102020.97;5063536;28;20547;-58
2021/12/12 00:26:11;;;;;;;9.48;4.78;;;;;;;7.42;67.12;102016.44;5068744;28;20061;-57
2021/12/12 00:28:39;;;;;;;11.30;4.47;;;;;;;7.41;67.12;102024.66;5069509;28;20068;-58
2021/12/12 00:31:11;;;;;;;14.20;4.60;;;;;;;7.41;67.17;102017.44;5065585;28;20083;-57
2021/12/12 00:33:42;;;;;;;11.55;3.90;;;;;;;7.41;67.27;102016.63;5066488;28;20368;-56
2021/12/12 00:36:16;;;;;;;12.27;4.18;;;;;;;7.43;67.53;102017.28;5066989;28;20049;-57
2021/12/12 00:38:45;;;;;;;11.80;4.22;;;;;;;7.44;67.03;102008.25;5073466;28;20052;-59
2021/12/12 00:41:16;;;;;;;12.13;4.50;;;;;;;7.42;67.39;102005.75;5065968;28;20080;-58
2021/12/12 00:43:48;;;;;;;10.23;4.05;;;;;;;7.44;67.10;102008.25;5070732;28;20052;-58
2021/12/12 00:46:18;;;;;;;14.15;4.72;;;;;;;7.43;67.60;102002.06;5067353;28;20103;-58
2021/12/12 00:48:48;;;;;;;10.63;4.15;;;;;;;7.41;67.42;102001.41;5080410;28;20117;-59
2021/12/12 00:51:22;;;;;;;12.70;4.25;;;;;;;7.44;66.98;102005.56;5070337;28;20084;-59
2021/12/12 00:53:50;;;;;;;9.25;3.92;;;;;;;7.43;67.55;101996.72;5069206;28;20136;-58
2021/12/12 00:56:18;;;;;;;10.82;4.15;;;;;;;7.44;67.31;101997.56;5065881;28;20076;-59
2021/12/12 00:58:46;;;;;;;13.27;4.82;;;;;;;7.34;67.06;101972.84;5065737;28;20040;-58
2021/12/12 01:01:19;;;;;;;12.15;5.35;;;;;;;7.44;67.23;101997.56;5071247;28;20079;-58
2021/12/12 01:03:53;;;;;;;9.80;3.65;;;;;;;7.42;66.98;101991.53;5070270;28;20401;-59
2021/12/12 01:06:24;;;;;;;13.90;3.83;;;;;;;7.41;67.04;101988.03;5074670;28;20047;-59
2021/12/12 01:08:55;;;;;;;12.48;4.68;;;;;;;7.42;67.14;101981.69;5071542;28;20044;-59
2021/12/12 01:11:26;;;;;;;14.00;4.40;;;;;;;7.46;67.73;101974.97;5069542;28;20085;-58
2021/12/12 01:13:55;;;;;;;11.45;4.10;;;;;;;7.47;67.60;101970.47;5070751;28;20083;-59
2021/12/12 01:16:26;;;;;;;14.80;4.75;;;;;;;7.47;67.29;101973.13;5065485;28;20463;-58
2021/12/12 01:18:58;;;;;;;12.35;3.97;;;;;;;7.38;67.38;101968.81;5077196;28;20077;-58
2021/12/12 01:21:31;;;;;;;10.63;4.10;;;;;;;7.46;67.31;101987.50;5065916;28;20072;-58
2021/12/12 01:24:02;;;;;;;12.82;3.80;;;;;;;7.46;67.42;101987.50;5064856;28;20148;-59
2021/12/12 01:26:30;;;;;;;11.65;3.83;;;;;;;7.44;67.36;101977.00;5072123;28;20048;-58
2021/12/12 01:29:00;;;;;;;12.23;3.92;;;;;;;7.45;67.82;101975.16;5072241;28;20052;-56
2021/12/12 01:31:32;;;;;;;11.57;4.22;;;;;;;7.44;67.62;101973.47;5065631;28;20470;-57
2021/12/12 01:34:10;;;;;;;13.45;4.68;;;;;;;7.42;67.46;101984.34;5066112;28;20182;-53
2021/12/12 01:36:48;;;;;;;10.52;3.70;;;;;;;7.41;67.80;101987.19;5069377;28;20048;-59
2021/12/12 01:39:19;;;;;;;12.63;4.35;;;;;;;7.42;67.69;101983.53;5066249;28;20499;-59
2021/12/12 01:41:52;;;;;;;15.20;4.38;;;;;;;7.42;67.69;101987.03;5065403;28;20076;-58
2021/12/12 01:44:25;;;;;;;13.13;3.67;;;;;;;7.40;67.35;101982.84;5066447;28;20060;-59
2021/12/12 01:47:01;;;;;;;16.55;3.97;;;;;;;7.40;67.45;101980.19;5065189;28;20046;-58
2021/12/12 01:49:30;;;;;;;9.85;3.50;;;;;;;7.41;68.01;101969.31;5060758;28;20051;-59
2021/12/12 01:52:00;;;;;;;12.23;4.45;;;;;;;7.41;68.14;101963.97;5068363;28;20057;-58
2021/12/12 01:54:32;;;;;;;13.60;4.38;;;;;;;7.43;67.51;101969.13;5065082;28;20070;-58
2021/12/12 01:57:01;;;;;;;12.52;4.30;;;;;;;7.41;67.44;101974.66;5065031;28;20064;-59
2021/12/12 01:59:32;;;;;;;15.73;4.72;;;;;;;7.42;67.82;101976.34;5067120;28;20045;-59
2021/12/12 02:02:06;;;;;;;12.35;4.07;;;;;;;7.42;67.56;101965.63;5065190;28;20084;-58
2021/12/12 02:04:39;;;;;;;12.82;4.05;;;;;;;7.43;68.16;101974.50;5065236;28;20130;-57
2021/12/12 02:07:11;;;;;;;15.75;4.32;;;;;;;7.42;67.63;101979.00;5065487;28;20076;-58
2021/12/12 02:09:40;;;;;;;8.10;3.63;;;;;;;7.41;68.08;101977.34;5075803;28;20049;-58
2021/12/12 02:12:09;;;;;;;13.75;4.60;;;;;;;7.43;67.92;101972.66;5064134;28;20076;-59
2021/12/12 02:14:39;;;;;;;15.05;4.53;;;;;;;7.44;68.03;101970.81;5065889;28;20049;-58
2021/12/12 02:17:14;;;;;;;9.45;4.40;;;;;;;7.44;67.70;101962.78;5064431;28;20075;-57
2021/12/12 02:19:54;;;;;;;12.85;3.95;;;;;;;7.45;68.33;101953.75;5060977;28;20045;-59
2021/12/12 02:22:41;;;;;;;13.15;3.97;;;;;;;7.44;68.01;101949.41;5064557;28;20060;-59
2021/12/12 02:36:21;;;;;;;11.63;3.78;;;;;;;7.44;68.53;101946.75;5018971;28;20049;-59
2021/12/12 02:38:53;;;;;;;10.25;4.07;;;;;;;7.44;68.45;101949.41;5020850;28;20142;-58
2021/12/12 02:41:24;;;;;;;15.85;4.03;;;;;;;7.46;68.23;101950.06;5018871;28;20073;-59
2021/12/12 02:43:54;;;;;;;12.18;4.30;;;;;;;7.45;67.88;101943.06;5018042;28;20057;-58
2021/12/12 02:46:27;;;;;;;9.00;3.58;;;;;;;7.45;68.17;101948.41;5016642;28;20111;-59
2021/12/12 02:49:04;;;;;;;8.68;3.22;;;;;;;7.44;68.33;101955.59;5021642;28;20503;-57
2021/12/12 02:51:36;;;;;;;14.52;3.88;;;;;;;7.43;68.04;101945.91;5016018;28;20086;-59
2021/12/12 02:54:07;;;;;;;11.00;3.30;;;;;;;7.43;68.35;101942.41;5019310;28;20093;-59
2021/12/12 02:56:38;;;;;;;11.68;4.18;;;;;;;7.44;68.17;101931.53;5020487;28;20177;-58
2021/12/12 02:59:08;;;;;;;13.10;5.40;;;;;;;7.44;68.32;101934.19;5014894;28;20107;-58
2021/12/12 03:01:41;;;;;;;12.20;3.88;;;;;;;7.46;68.36;101932.19;5020673;28;20046;-50
2021/12/12 03:04:09;;;;;;;9.90;3.58;;;;;;;7.46;68.51;101928.69;5021681;28;20064;-56
2021/12/12 03:06:40;;;;;;;13.35;3.20;;;;;;;7.43;68.73;101927.19;5018705;28;20080;-59
2021/12/12 03:09:18;;;;;;;14.43;3.50;;;;;;;7.44;68.75;101923.50;5010927;28;20050;-58
2021/12/12 03:11:47;;;;;;;11.38;3.33;;;;;;;7.45;68.95;101921.66;5019954;28;20104;-56
2021/12/12 03:14:17;;;;;;;11.40;3.28;;;;;;;7.45;68.21;101924.34;5062911;28;20077;-58
2021/12/12 03:16:45;;;;;;;9.40;3.20;;;;;;;7.46;68.82;101928.69;5064080;28;20103;-59
2021/12/12 03:19:14;;;;;;;11.13;3.35;;;;;;;7.42;68.91;101922.84;5063658;28;20076;-59
2021/12/12 03:21:45;;;;;;;10.60;3.78;;;;;;;7.43;69.02;101921.00;5063421;28;20064;-58
2021/12/12 03:24:19;;;;;;;9.95;3.63;;;;;;;7.45;68.90;101921.66;5062995;28;20056;-58
2021/12/12 03:26:49;;;;;;;11.27;3.47;;;;;;;7.44;68.92;101922.66;5064048;28;20174;-59
2021/12/12 03:29:18;;;;;;;10.55;3.63;;;;;;;7.45;68.77;101929.69;5064557;28;20080;-55
2021/12/12 03:31:52;;;;;;;13.75;3.40;;;;;;;7.46;68.88;101921.47;5066342;28;20073;-58
2021/12/12 03:34:27;;;;;;;10.88;3.33;;;;;;;7.46;69.14;101920.66;5063624;28;20049;-58
2021/12/12 03:36:56;;;;;;;10.93;4.72;;;;;;;7.45;69.26;101918.97;5065238;28;20048;-58
2021/12/12 03:39:30;;;;;;;11.73;4.75;;;;;;;7.43;69.04;101903.13;5064418;28;20078;-58
2021/12/12 03:42:02;;;;;;;8.65;3.42;;;;;;;7.47;69.00;101911.63;5063912;28;20048;-57
2021/12/12 03:44:34;;;;;;;12.13;3.38;;;;;;;7.46;68.92;101897.41;5063325;28;20080;-58
2021/12/12 03:47:06;;;;;;;9.50;3.50;;;;;;;7.44;69.61;101893.25;5068793;28;20154;-58
2021/12/12 03:49:36;;;;;;;10.82;3.78;;;;;;;7.42;69.39;101901.44;5054131;28;20487;-58
2021/12/12 03:52:05;;;;;;;10.68;2.85;;;;;;;7.45;69.40;101895.75;5063881;28;20126;-58
2021/12/12 03:54:35;;;;;;;9.95;3.25;;;;;;;7.44;69.03;101904.78;5064917;28;20044;-57
2021/12/12 03:57:04;;;;;;;9.05;3.22;;;;;;;7.46;69.26;101896.56;5063328;28;20091;-59
2021/12/12 03:59:33;;;;;;;8.23;3.40;;;;;;;7.45;69.38;101895.75;5066998;28;20045;-59
2021/12/12 04:02:01;;;;;;;10.55;3.85;;;;;;;7.45;69.56;101894.91;5063178;28;20045;-58
2021/12/12 04:04:32;;;;;;;13.90;3.92;;;;;;;7.45;69.27;101894.91;5063670;28;20076;-53
2021/12/12 04:07:02;;;;;;;10.68;3.83;;;;;;;7.47;69.51;101900.91;5066795;28;20053;-58
2021/12/12 04:09:29;;;;;;;10.15;3.15;;;;;;;7.44;69.56;101894.09;5079628;28;20048;-59
2021/12/12 04:12:02;;;;;;;10.25;3.70;;;;;;;7.45;69.68;101898.41;5066543;28;20051;-58
2021/12/12 04:14:30;;;;;;;12.00;3.72;;;;;;;7.43;69.61;101903.13;5067601;28;20065;-58
2021/12/12 04:17:00;;;;;;;9.32;4.22;;;;;;;7.42;69.97;101904.13;5066841;28;20045;-57
2021/12/12 04:19:28;;;;;;;11.40;3.55;;;;;;;7.46;70.33;101907.28;5064088;28;20056;-58
2021/12/12 04:21:57;;;;;;;6.90;2.90;;;;;;;7.47;69.46;101904.44;5080198;28;20079;-59
2021/12/12 04:24:28;;;;;;;9.82;3.42;;;;;;;7.46;69.97;101905.44;5069915;28;20397;-58
2021/12/12 04:26:56;;;;;;;10.27;4.20;;;;;;;7.47;69.83;101904.44;5069428;28;20087;-60
2021/12/12 04:29:32;;;;;;;6.85;2.28;;;;;;;7.47;70.01;101916.97;5067232;28;20060;-58
2021/12/12 04:32:02;;;;;;;9.95;2.92;;;;;;;7.48;69.63;101910.59;5067021;28;20405;-58
2021/12/12 04:34:33;;;;;;;7.78;2.80;;;;;;;7.46;70.16;101913.47;5067396;28;20080;-57
2021/12/12 04:37:01;;;;;;;12.25;3.22;;;;;;;7.46;69.87;101904.59;5070669;28;20045;-57
2021/12/12 04:39:33;;;;;;;9.02;3.15;;;;;;;7.47;70.13;101901.75;5066318;28;20518;-57
2021/12/12 04:42:06;;;;;;;10.93;3.55;;;;;;;7.47;69.69;101900.91;5076234;28;20083;-56
2021/12/12 04:44:37;;;;;;;5.60;2.72;;;;;;;7.48;70.04;101910.59;5066933;28;20084;-57
2021/12/12 04:50:06;;;;;;;5.72;2.53;;;;;;;7.48;69.88;101913.28;5066007;28;20056;-57
2021/12/12 04:52:41;;;;;;;6.63;2.80;;;;;;;7.49;70.82;101909.59;5054690;28;20056;-58
2021/12/12 04:55:13;;;;;;;8.18;3.00;;;;;;;7.48;70.08;101910.59;5061183;28;20082;-58
2021/12/12 04:57:46;;;;;;;10.40;3.17;;;;;;;7.48;70.01;101908.78;5060716;28;20053;-56
2021/12/12 05:00:19;;;;;;;7.88;2.70;;;;;;;7.47;70.39;101900.91;5060200;28;20084;-57
2021/12/12 05:02:55;;;;;;;7.72;3.05;;;;;;;7.47;70.02;101899.06;5062314;28;20076;-58
2021/12/12 05:05:29;;;;;;;6.82;2.40;;;;;;;7.40;70.22;101903.47;5064572;28;20072;-55
2021/12/12 05:08:04;;;;;;;9.32;2.80;;;;;;;7.49;70.08;101905.09;5064681;28;20044;-57
2021/12/12 05:10:37;;;;;;;10.18;4.53;;;;;;;7.51;70.21;101915.59;5061366;28;20053;-57
2021/12/12 05:13:12;;;;;;;6.22;2.80;;;;;;;7.49;70.35;101915.78;5053431;28;20046;-57
2021/12/12 05:15:44;;;;;;;8.23;2.80;;;;;;;7.50;70.74;101911.28;5052924;28;20071;-58
2021/12/12 05:18:16;;;;;;;5.93;2.70;;;;;;;7.50;70.43;101921.97;5054723;28;20144;-58
2021/12/12 05:20:48;;;;;;;8.10;2.83;;;;;;;7.49;70.21;101923.81;5061298;28;20071;-58
2021/12/12 05:23:19;;;;;;;5.85;2.42;;;;;;;7.49;70.86;101923.81;5053245;28;20077;-58
2021/12/12 05:25:51;;;;;;;6.03;2.65;;;;;;;7.49;70.23;101931.84;5075985;28;20053;-58
2021/12/12 05:28:23;;;;;;;8.88;2.42;;;;;;;7.48;70.71;101927.50;5067427;28;20053;-58
2021/12/12 05:30:53;;;;;;;7.55;4.30;;;;;;;7.49;71.13;101929.16;5065439;28;20045;-58
2021/12/12 05:33:21;;;;;;;5.88;2.50;;;;;;;7.49;70.44;101939.03;5066503;28;20073;-58
2021/12/12 05:35:50;;;;;;;6.95;2.80;;;;;;;7.49;70.81;101928.31;5075555;28;20066;-58
2021/12/12 05:38:21;;;;;;;7.35;3.05;;;;;;;7.48;70.28;101938.19;5071966;28;20102;-58
2021/12/12 05:40:50;;;;;;;8.55;2.30;;;;;;;7.49;70.91;101934.50;5079425;28;20048;-58
2021/12/12 05:43:18;;;;;;;6.32;3.15;;;;;;;7.50;70.78;101933.50;5063188;28;20063;-58
2021/12/12 05:45:48;;;;;;;6.72;3.78;;;;;;;7.44;70.19;101925.34;5072461;28;20088;-57
2021/12/12 05:48:17;;;;;;;4.07;2.35;;;;;;;7.52;70.81;101930.66;5076314;28;20083;-58
2021/12/12 05:50:45;;;;;;;5.05;3.00;;;;;;;7.51;70.55;101927.13;5068922;28;20056;-58
2021/12/12 05:53:15;;;;;;;5.05;2.78;;;;;;;7.54;70.22;101931.31;5066532;28;20072;-55
2021/12/12 05:55:45;;;;;;;3.80;2.28;;;;;;;7.54;70.55;101933.97;5067988;28;20053;-57
2021/12/12 05:58:17;;;;;;;8.88;2.95;;;;;;;7.54;70.08;101931.31;5072952;28;20080;-58
2021/12/12 06:00:48;;;;;;;7.30;2.80;;;;;;;7.55;70.95;101934.81;5068299;28;20081;-58
2021/12/12 06:03:21;;;;;;;5.15;2.63;;;;;;;7.54;70.77;101943.84;5065229;28;20049;-58
2021/12/12 06:05:49;;;;;;;3.38;2.35;;;;;;;7.55;70.51;101942.84;5072326;28;20053;-58
2021/12/12 06:08:22;;;;;;;4.28;2.13;;;;;;;7.54;71.03;101944.69;5066574;28;20122;-57
2021/12/12 06:10:51;;;;;;;4.90;2.33;;;;;;;7.55;70.89;101956.22;5063635;28;20089;-58
2021/12/12 06:13:20;;;;;;;2.95;1.85;;;;;;;7.54;70.90;101952.72;5070449;28;20049;-57
2021/12/12 06:15:53;;;;;;;7.85;2.78;;;;;;;7.55;70.90;101953.53;5063135;28;20127;-57
2021/12/12 06:18:29;;;;;;;4.18;2.00;;;;;;;7.55;71.22;101958.88;4362752;28;10000690;-56
2021/12/12 06:20:58;;;;;;;3.40;2.28;;;;;;;7.56;71.15;101960.56;5067519;28;20550;-57
2021/12/12 06:23:27;;;;;;;5.20;2.42;;;;;;;7.47;70.90;101957.09;5059236;28;20470;-55
2021/12/12 06:25:56;;;;;;;5.18;2.67;;;;;;;7.54;71.00;101955.38;5070913;28;20048;-56
2021/12/12 06:28:27;;;;;;;7.00;2.55;;;;;;;7.56;70.97;101963.22;5069076;28;20079;-58
2021/12/12 06:30:56;;;;;;;5.55;2.25;;;;;;;7.54;71.89;101963.41;5065636;28;20058;-57
2021/12/12 06:33:26;;;;;;;5.20;2.28;;;;;;;7.64;71.34;101960.50;5047971;28;20127;-57
2021/12/12 06:35:55;;;;;;;3.97;2.25;;;;;;;7.76;71.05;101962.63;5068398;28;20080;-58
2021/12/12 06:38:24;;;;;;;2.97;2.00;;;;;;;7.92;70.87;101956.34;5064505;28;20087;-58
2021/12/12 06:40:53;;;;;;;5.63;2.72;;;;;;;8.03;70.02;101957.78;5059676;28;20160;-57
2021/12/12 06:43:24;;;;;;;4.93;2.28;;;;;;;8.19;69.52;101954.97;5065072;28;20057;-56
2021/12/12 06:45:52;;;;;;;4.60;2.10;;;;;;;8.33;69.00;101959.59;5063577;28;20506;-56
2021/12/12 06:48:21;;;;;;;4.45;2.30;;;;;;;8.51;67.92;101955.75;5059470;28;20152;-57
2021/12/12 06:50:52;;;;;;;4.97;2.78;;;;;;;8.64;68.11;101956.81;5064032;28;20087;-58
2021/12/12 06:53:23;;;;;;;4.78;2.13;;;;;;;8.76;66.73;101962.53;5067029;28;20045;-56
2021/12/12 06:55:53;;;;;;;5.60;2.50;;;;;;;8.88;66.80;101961.06;5060666;28;20063;-57
2021/12/12 06:58:21;;;;;;;5.88;2.63;;;;;;;8.99;66.49;101959.78;5065684;28;20049;-58
2021/12/12 07:00:56;;;;;;;5.55;2.05;;;;;;;9.10;66.03;101962.00;5059426;28;20110;-55
2021/12/12 07:03:25;;;;;;;3.42;1.98;;;;;;;9.13;66.22;101967.81;5063658;28;20288;-57
2021/12/12 07:05:54;;;;;;;3.70;1.80;;;;;;;9.14;65.61;101964.13;5059586;28;20077;-59
2021/12/12 07:08:23;;;;;;;6.25;2.30;;;;;;;9.02;65.56;101932.59;5061181;28;20083;-56
2021/12/12 07:10:52;;;;;;;5.50;2.92;;;;;;;9.26;65.90;101971.72;5070631;28;20180;-45
2021/12/12 07:13:20;;;;;;;6.80;2.58;;;;;;;9.25;66.10;101970.88;5070750;28;20076;-55
2021/12/12 07:15:51;;;;;;;5.90;2.42;;;;;;;9.23;66.92;101978.28;5064486;28;20078;-58
2021/12/12 07:18:24;;;;;;;6.35;2.38;;;;;;;9.23;66.75;101980.13;5052630;28;20048;-58
2021/12/12 07:20:57;;;;;;;8.30;2.45;;;;;;;9.15;66.63;101975.69;5064070;28;20411;-57
2021/12/12 07:23:25;;;;;;;9.82;2.55;;;;;;;9.02;66.66;101988.91;5064693;28;20083;-57
2021/12/12 07:25:53;;;;;;;5.22;2.35;;;;;;;8.89;67.00;101992.22;5059509;28;20523;-57
2021/12/12 07:28:21;;;;;;;5.43;2.58;;;;;;;8.77;68.27;101983.78;5060492;28;20083;-57
2021/12/12 07:30:50;;;;;;;7.75;2.50;;;;;;;8.65;68.25;101982.59;5059410;28;20049;-57
2021/12/12 07:33:19;;;;;;;9.00;2.53;;;;;;;8.55;68.45;101981.19;5063283;28;20041;-58
2021/12/12 07:35:47;;;;;;;3.25;2.10;;;;;;;8.45;69.54;101989.47;5073066;28;20057;-57
2021/12/12 07:38:17;;;;;;;4.53;2.20;;;;;;;8.38;69.93;101975.94;5070208;28;20044;-55
2021/12/12 07:40:46;;;;;;;5.50;2.55;;;;;;;8.34;69.37;101988.03;5058440;28;20132;-56
2021/12/12 07:43:14;;;;;;;4.57;2.58;;;;;;;8.28;70.83;101987.88;5059511;28;20045;-57
2021/12/12 07:45:43;;;;;;;4.70;2.33;;;;;;;8.23;70.00;101980.38;5060232;28;20643;-55
2021/12/12 07:48:12;;;;;;;4.65;2.78;;;;;;;8.20;70.52;101993.31;5073713;28;20053;-56
2021/12/12 07:50:43;;;;;;;5.82;2.42;;;;;;;8.15;71.65;101992.00;5062951;28;20076;-56
2021/12/12 07:53:12;;;;;;;7.13;2.30;;;;;;;8.10;71.40;101997.03;5066433;28;20080;-60
2021/12/12 07:55:41;;;;;;;11.02;3.53;;;;;;;8.09;72.50;101994.53;5070129;28;20049;-56
2021/12/12 07:58:11;;;;;;;4.28;2.70;;;;;;;8.08;71.58;101999.06;5065642;28;20211;-59
2021/12/12 08:00:41;;;;;;;4.78;2.28;;;;;;;8.07;71.50;102002.75;5055501;28;20049;-55
2021/12/12 08:03:10;;;;;;;4.60;2.83;;;;;;;8.06;72.19;102000.25;5063321;28;20515;-57
2021/12/12 08:05:38;;;;;;;9.85;4.32;;;;;;;8.04;71.97;101994.25;5065206;28;20053;-58
2021/12/12 08:08:10;;;;;;;5.03;2.30;;;;;;;8.05;72.23;102001.25;5063151;28;20060;-56
2021/12/12 08:10:42;;;;;;;7.53;2.88;;;;;;;8.05;72.34;102006.63;5061747;28;20053;-57
2021/12/12 08:13:12;;;;;;;4.80;2.42;;;;;;;8.02;72.03;102007.81;5063688;28;20087;-57
2021/12/12 08:15:41;;;;;;;8.10;2.80;;;;;;;7.98;72.74;102006.50;5062766;28;20048;-55
2021/12/12 08:18:12;;;;;;;4.10;2.45;;;;;;;7.97;72.74;102006.66;5063696;28;20493;-57
2021/12/12 08:20:40;;;;;;;5.60;2.78;;;;;;;7.96;72.32;102013.88;5063358;28;20113;-57
2021/12/12 08:23:08;;;;;;;7.00;4.40;;;;;;;7.95;71.77;102014.03;5062871;28;20056;-57
2021/12/12 08:25:37;;;;;;;5.80;2.70;;;;;;;7.93;72.36;102014.22;5062925;28;20148;-46
2021/12/12 08:28:07;;;;;;;3.95;2.25;;;;;;;7.95;72.51;102022.91;5063661;28;20053;-56
2021/12/12 08:30:36;;;;;;;4.90;2.50;;;;;;;7.96;72.84;102018.38;5062638;28;20072;-56
2021/12/12 08:33:06;;;;;;;4.95;2.92;;;;;;;7.94;72.09;102023.91;5077475;28;20068;-57
2021/12/12 08:35:36;;;;;;;6.53;3.47;;;;;;;7.93;72.63;102029.44;5064435;28;20179;-57
2021/12/12 08:38:07;;;;;;;6.50;3.33;;;;;;;7.93;72.29;102032.13;5063101;28;20060;-56
2021/12/12 08:40:39;;;;;;;4.88;2.55;;;;;;;7.91;72.48;102032.28;5061912;28;20163;-57
2021/12/12 08:43:12;;;;;;;6.93;3.15;;;;;;;7.92;72.60;102035.81;5063248;28;20435;-57
2021/12/12 08:45:43;;;;;;;4.85;2.83;;;;;;;7.90;73.19;102037.81;5062926;28;20049;-58
2021/12/12 08:48:12;;;;;;;3.70;2.53;;;;;;;7.90;72.18;102035.97;5063534;28;20060;-56
2021/12/12 08:50:42;;;;;;;6.22;2.97;;;;;;;7.87;74.37;102048.88;5063423;28;20052;-58
2021/12/12 08:53:11;;;;;;;4.82;3.17;;;;;;;7.91;74.97;102050.19;5065419;28;20088;-56
2021/12/12 08:55:44;;;;;;;6.72;3.03;;;;;;;7.91;74.55;102045.69;5069604;28;20379;-58
2021/12/12 08:58:18;;;;;;;6.22;2.88;;;;;;;7.91;74.10;102044.84;5074373;28;20048;-58
2021/12/12 09:00:54;;;;;;;8.27;3.20;;;;;;;7.91;74.40;102048.34;5075092;28;20084;-58
2021/12/12 09:03:24;;;;;;;;;;;;;;;7.90;74.22;102060.06;5067377;28;20148;-58
2021/12/12 09:05:52;;;;;;;6.82;3.45;;;;;;;7.90;74.58;102054.72;5066751;28;19943;-58
2021/12/12 09:08:36;;;;;;;8.60;3.78;;;;;;;7.93;75.18;102042.81;5066274;28;20102;-57
2021/12/12 09:11:08;;;;;;;7.00;3.22;;;;;;;7.93;74.10;102053.53;5065356;28;20048;-57
2021/12/12 09:13:44;;;;;;;7.10;3.00;;;;;;;7.94;73.89;102065.91;5076198;28;20044;-58
2021/12/12 09:16:19;;;;;;;8.10;3.70;;;;;;;7.94;74.58;102071.25;5071044;28;20075;-58
2021/12/12 09:18:52;;;;;;;7.05;3.20;;;;;;;7.95;73.92;102072.94;5067243;28;20053;-58
2021/12/12 09:21:26;;;;;;;7.97;3.17;;;;;;;7.96;73.80;102079.94;5066579;28;20125;-55
2021/12/12 09:24:05;;;;;;;6.38;2.97;;;;;;;7.96;74.01;102080.78;5065598;28;20045;-58
2021/12/12 09:26:37;;;;;;;6.07;2.90;;;;;;;7.97;74.68;102078.94;5060885;28;20088;-57
2021/12/12 09:29:17;;;;;;;6.65;3.53;;;;;;;7.95;73.57;102075.59;5056348;28;20099;-58
2021/12/12 09:31:51;;;;;;;7.43;2.75;;;;;;;7.94;74.16;102082.81;5064357;28;20040;-56
2021/12/12 09:34:25;;;;;;;5.13;3.38;;;;;;;7.95;73.80;102081.78;5059696;28;20045;-57
2021/12/12 09:37:18;;;;;;;5.40;3.13;;;;;;;7.97;73.97;102084.28;5071389;28;20048;-58
2021/12/12 09:39:57;;;;;;;6.28;3.03;;;;;;;7.98;74.48;102089.47;5066065;28;20056;-58
2021/12/12 09:42:43;;;;;;;5.50;2.88;;;;;;;8.00;74.77;102095.50;5065481;28;20053;-57
2021/12/12 09:45:35;;;;;;;7.03;3.28;;;;;;;8.02;74.27;102092.63;5066744;28;20095;-55
2021/12/12 09:51:14;;;;;;;7.72;3.45;;;;;;;8.03;73.87;102107.69;5069939;28;20067;-58
2021/12/12 09:51:25;;;;;;;8.68;3.83;;;;;;;8.04;74.25;102106.69;5064911;28;20059;-58
2021/12/12 09:54:21;;;;;;;6.38;3.42;;;;;;;8.03;75.31;102096.97;5062904;28;20120;-62
2021/12/12 09:56:52;;;;;;;4.80;2.67;;;;;;;8.04;74.42;102110.19;5064939;28;20049;-57
2021/12/12 09:59:39;;;;;;;5.90;3.65;;;;;;;8.04;74.31;102104.84;5064884;28;20156;-57
2021/12/12 10:02:18;;;;;;;8.50;5.00;;;;;;;8.04;74.04;102096.81;5067337;28;20055;-55
2021/12/12 10:05:03;;;;;;;6.47;3.15;;;;;;;8.05;74.42;102100.31;5061286;28;20079;-57
2021/12/12 10:07:44;;;;;;;7.50;3.25;;;;;;;8.06;73.97;102100.16;5064847;28;20060;-56
2021/12/12 10:10:16;;;;;;;5.53;2.95;;;;;;;8.06;74.40;102100.16;5064531;28;20048;-58
2021/12/12 10:12:55;;;;;;;5.60;3.45;;;;;;;8.07;74.65;102099.13;5063581;28;20136;-58
2021/12/12 10:15:25;;;;;;;6.28;3.10;;;;;;;8.07;74.35;102101.81;5064356;28;20048;-51
2021/12/12 10:18:01;;;;;;;7.25;2.88;;;;;;;8.07;74.33;102104.50;5064673;28;20102;-58
2021/12/12 10:20:34;;;;;;;6.85;3.53;;;;;;;8.06;73.66;102097.47;5060814;28;20068;-57
2021/12/12 10:23:13;;;;;;;5.85;3.40;;;;;;;8.07;74.60;102098.31;5064349;28;20490;-58
2021/12/12 10:25:52;;;;;;;6.55;3.13;;;;;;;7.97;74.93;102087.81;5063327;28;20080;-58
2021/12/12 10:28:24;;;;;;;5.93;3.33;;;;;;;8.07;74.58;102112.53;5059763;28;20056;-58
2021/12/12 10:31:02;;;;;;;7.30;3.83;;;;;;;8.08;74.43;102098.13;5068200;28;20476;-59
2021/12/12 10:33:40;;;;;;;8.10;2.92;;;;;;;8.08;75.17;102099.97;5064310;28;20071;-57
2021/12/12 10:36:11;;;;;;;9.77;4.15;;;;;;;7.99;74.81;102084.97;5070547;28;20079;-59
2021/12/12 10:38:46;;;;;;;6.65;3.53;;;;;;;8.09;74.23;102102.47;5059445;28;20056;-56
2021/12/12 10:41:18;;;;;;;6.47;3.30;;;;;;;8.10;74.79;102103.31;4709564;28;10000401;-58
2021/12/12 10:43:54;;;;;;;6.30;3.45;;;;;;;8.11;74.66;102094.28;5069373;28;20068;-56
2021/12/12 10:46:29;;;;;;;5.68;3.22;;;;;;;8.12;73.95;102101.28;5047041;28;20518;-56
2021/12/12 10:49:05;;;;;;;9.88;3.42;;;;;;;8.02;74.56;102088.13;5063664;28;20131;-53
2021/12/12 10:51:40;;;;;;;5.60;3.05;;;;;;;8.13;73.87;102100.28;5070726;28;20068;-59
2021/12/12 10:54:15;;;;;;;5.18;3.45;;;;;;;8.15;74.15;102106.31;5062313;28;20099;-54
2021/12/12 10:56:48;;;;;;;5.78;3.30;;;;;;;8.15;73.93;102100.94;5062611;28;20139;-57
2021/12/12 10:59:23;;;;;;;7.15;3.72;;;;;;;8.15;74.24;102107.13;5060243;28;20091;-56
2021/12/12 11:01:54;;;;;;;5.60;3.50;;;;;;;8.17;74.52;102109.63;5069362;28;20049;-54
2021/12/12 11:04:30;;;;;;;7.75;3.92;;;;;;;8.16;74.22;102114.16;5052837;28;20045;-58
2021/12/12 11:07:01;;;;;;;7.70;3.92;;;;;;;8.22;74.99;102107.25;5053888;28;20064;-58
2021/12/12 11:09:34;;;;;;;6.57;3.13;;;;;;;8.23;74.50;102105.44;5066811;28;20494;-57
2021/12/12 11:12:09;;;;;;;8.75;4.07;;;;;;;8.24;74.89;102102.56;5064387;28;20109;-58
2021/12/12 11:14:42;;;;;;;9.23;3.63;;;;;;;8.27;74.60;102099.53;5064758;28;20064;-58
2021/12/12 11:17:14;;;;;;;10.15;4.90;;;;;;;8.27;75.28;102093.34;4715742;28;9999682;-60
2021/12/12 11:19:49;;;;;;;9.23;4.15;;;;;;;8.25;75.49;102090.84;5072726;28;20052;-55
2021/12/12 11:22:25;;;;;;;7.38;3.60;;;;;;;8.26;75.47;102102.41;5067100;28;20084;-58
2021/12/12 11:24:57;;;;;;;8.18;3.95;;;;;;;8.26;74.97;102102.41;5059652;28;20045;-58
2021/12/12 11:27:31;;;;;;;9.27;4.28;;;;;;;8.27;75.29;102099.53;5063092;28;20048;-57
2021/12/12 11:30:02;;;;;;;10.07;3.38;;;;;;;8.28;75.54;102093.16;5069106;28;20087;-58
2021/12/12 11:32:35;;;;;;;10.05;4.22;;;;;;;8.31;75.27;102097.34;5064098;28;20065;-58
2021/12/12 11:35:07;;;;;;;8.55;4.35;;;;;;;8.31;75.09;102092.00;5073510;28;20048;-57
2021/12/12 11:37:41;;;;;;;8.45;4.38;;;;;;;8.32;74.60;102096.34;5064069;28;20119;-58
2021/12/12 11:40:19;;;;;;;6.57;3.60;;;;;;;8.32;74.37;102094.50;5059759;28;20037;-58
2021/12/12 11:42:49;;;;;;;7.95;3.35;;;;;;;8.35;74.18;102102.19;5059631;28;20057;-57
2021/12/12 11:45:25;;;;;;;7.38;3.63;;;;;;;8.35;74.79;102098.69;5060395;28;20080;-57
2021/12/12 11:48:18;;;;;;;6.35;3.40;;;;;;;8.36;74.16;102095.84;5065277;28;20079;-58
2021/12/12 11:50:54;;;;;;;5.50;3.20;;;;;;;8.37;74.43;102102.88;5058651;28;20491;-58
2021/12/12 11:53:30;;;;;;;7.57;3.30;;;;;;;8.39;74.45;102097.31;5059591;28;20084;-51
2021/12/12 11:56:05;;;;;;;5.53;3.30;;;;;;;8.40;74.27;102099.00;5061013;28;20041;-58
2021/12/12 11:58:38;;;;;;;5.85;3.40;;;;;;;8.47;74.34;102095.44;5067000;28;20079;-57
2021/12/12 12:01:18;;;;;;;5.68;3.78;;;;;;;8.41;74.40;102097.97;5061801;28;20049;-57
2021/12/12 12:04:01;;;;;;;6.05;3.03;;;;;;;8.42;74.89;102100.50;5061912;28;20375;-58
2021/12/12 12:06:39;;;;;;;5.15;3.08;;;;;;;8.43;74.30;102099.47;5060733;28;20041;-58
2021/12/12 12:09:31;;;;;;;4.80;2.70;;;;;;;8.45;74.78;102097.44;5063122;28;20076;-58